Time;durP1;ratioP1;P1;durP2;ratioP2;P2;SDS_P1;SDS_P2;PMS_P1;PMS_P2;Temp;Humidity;BMP_temperature;BMP_pressure;BME280_temperature;BME280_humidity;BME280_pressure;Samples;Min_cycle;Max_cycle;Signal;HPM_P1;HPM_P2
2024/03/22 00:01:51;;;;;;;27.27;15.87;;;;;;;9.16;93.78;101321.34;5047284;28;20255;-77
2024/03/22 00:04:17;;;;;;;26.63;15.93;;;;;;;9.18;93.33;101308.84;5050093;28;20268;-78
2024/03/22 00:06:45;;;;;;;22.87;16.23;;;;;;;9.18;93.80;101311.50;5047763;28;20293;-78
2024/03/22 00:09:11;;;;;;;20.90;14.83;;;;;;;9.19;93.95;101311.44;5051984;28;20229;-78
2024/03/22 00:11:38;;;;;;;27.47;16.47;;;;;;;9.25;94.08;101304.97;5044377;28;20662;-77
2024/03/22 00:14:03;;;;;;;30.00;16.93;;;;;;;9.24;93.92;101306.78;5049852;28;20316;-78
2024/03/22 00:16:31;;;;;;;28.60;16.77;;;;;;;9.23;94.44;101309.50;5046497;28;20751;-77
2024/03/22 00:18:57;;;;;;;28.27;16.93;;;;;;;9.24;94.97;101303.25;5045895;28;20240;-77
2024/03/22 00:21:24;;;;;;;34.07;19.17;;;;;;;9.25;95.13;101299.66;5046996;28;20600;-77
2024/03/22 00:23:50;;;;;;;30.43;17.47;;;;;;;9.27;96.18;101301.31;5045373;28;20230;-77
2024/03/22 00:26:16;;;;;;;32.97;19.07;;;;;;;9.29;96.09;101303.91;5048513;28;20736;-77
2024/03/22 00:28:42;;;;;;;33.27;18.87;;;;;;;9.29;95.97;101302.09;5043416;28;20300;-77
2024/03/22 00:31:09;;;;;;;30.70;19.13;;;;;;;9.30;96.52;101300.31;5047644;28;20312;-77
2024/03/22 00:33:36;;;;;;;28.77;18.87;;;;;;;9.29;96.40;101302.09;5046477;28;20205;-77
2024/03/22 00:36:03;;;;;;;36.57;20.13;;;;;;;9.30;96.60;101295.00;5045167;28;20209;-77
2024/03/22 00:38:29;;;;;;;38.33;21.23;;;;;;;9.33;96.47;101294.81;5048155;28;20216;-76
2024/03/22 00:40:55;;;;;;;41.63;22.00;;;;;;;9.35;96.28;101291.16;5048588;28;20308;-77
2024/03/22 00:43:21;;;;;;;36.80;20.77;;;;;;;9.36;96.53;101298.19;5046849;28;20293;-78
2024/03/22 00:45:48;;;;;;;36.47;22.23;;;;;;;9.34;96.53;101291.22;5042118;28;20345;-77
2024/03/22 00:48:13;;;;;;;37.17;21.00;;;;;;;9.38;96.44;101284.84;5046185;28;20270;-77
2024/03/22 00:50:41;;;;;;;36.43;21.57;;;;;;;9.36;96.72;101284.03;5049284;28;20637;-77
2024/03/22 00:53:07;;;;;;;39.93;22.83;;;;;;;9.39;96.38;101286.56;5045834;28;20197;-77
2024/03/22 00:55:34;;;;;;;38.03;23.87;;;;;;;9.37;96.62;101277.78;5047820;28;20202;-77
2024/03/22 00:58:00;;;;;;;41.47;22.53;;;;;;;9.38;96.44;101272.41;5047375;28;20737;-77
2024/03/22 01:00:26;;;;;;;46.57;23.03;;;;;;;9.39;96.41;101270.59;5046852;28;20233;-77
2024/03/22 01:02:52;;;;;;;43.27;23.03;;;;;;;9.42;96.74;101262.50;5046392;28;20315;-77
2024/03/22 01:05:19;;;;;;;42.43;22.30;;;;;;;9.40;97.00;101264.34;5048231;28;20309;-78
2024/03/22 01:07:46;;;;;;;39.50;22.77;;;;;;;9.44;96.70;101271.25;5047747;28;20292;-77
2024/03/22 01:10:13;;;;;;;43.47;22.87;;;;;;;9.46;96.45;101257.88;5047327;28;20694;-77
2024/03/22 01:12:39;;;;;;;40.03;23.80;;;;;;;9.45;96.22;101257.03;5046666;28;20313;-77
2024/03/22 01:15:07;;;;;;;44.63;25.27;;;;;;;9.46;95.68;101247.25;5046086;28;20456;-77
2024/03/22 01:17:33;;;;;;;43.20;23.73;;;;;;;9.47;96.08;101246.31;5045726;28;20657;-77
2024/03/22 01:19:59;;;;;;;44.93;24.47;;;;;;;9.50;95.78;101247.00;5047881;28;20257;-78
2024/03/22 01:22:25;;;;;;;40.97;21.93;;;;;;;9.51;95.60;101246.06;5047052;28;20316;-78
2024/03/22 01:24:54;;;;;;;41.53;23.07;;;;;;;9.52;95.51;101253.13;5050073;28;20269;-77
2024/03/22 01:27:20;;;;;;;47.77;24.00;;;;;;;9.51;95.59;101240.75;5046324;28;20208;-78
2024/03/22 01:29:48;;;;;;;44.20;23.17;;;;;;;9.53;95.55;101246.84;5044126;28;20566;-77
2024/03/22 01:32:13;;;;;;;44.33;23.43;;;;;;;9.56;95.38;101238.75;5042678;28;20222;-77
2024/03/22 01:34:40;;;;;;;40.67;23.20;;;;;;;9.54;95.40;101243.25;5040078;28;20208;-77
2024/03/22 01:37:06;;;;;;;44.07;22.87;;;;;;;9.56;95.73;101238.75;5048843;28;20198;-78
2024/03/22 01:39:33;;;;;;;42.00;23.27;;;;;;;9.57;95.66;101248.44;5046162;28;20232;-77
2024/03/22 01:42:00;;;;;;;41.23;22.13;;;;;;;9.57;95.41;101251.09;5046972;28;20325;-77
2024/03/22 01:44:29;;;;;;;44.40;23.43;;;;;;;9.58;95.83;101242.19;5045630;28;20664;-78
2024/03/22 01:46:54;;;;;;;42.30;23.50;;;;;;;9.55;96.01;101229.03;5044816;28;20780;-78
2024/03/22 01:49:22;;;;;;;44.83;23.73;;;;;;;9.57;96.03;101232.47;5045353;28;20292;-78
2024/03/22 01:51:48;;;;;;;42.80;23.77;;;;;;;9.60;96.03;101234.13;5046742;28;20773;-77
2024/03/22 01:54:17;;;;;;;40.03;23.93;;;;;;;9.60;95.96;101231.47;5042525;28;20736;-78
2024/03/22 01:56:42;;;;;;;46.07;24.40;;;;;;;9.63;95.84;101223.34;5045134;28;20205;-78
2024/03/22 01:59:10;;;;;;;40.00;23.70;;;;;;;9.61;95.88;101214.56;5048964;28;20297;-78
2024/03/22 02:01:36;;;;;;;45.47;23.93;;;;;;;9.60;95.87;101210.19;5046682;28;20304;-78
2024/03/22 02:04:03;;;;;;;40.53;22.93;;;;;;;9.61;95.78;101198.63;5044046;28;20284;-77
2024/03/22 02:06:29;;;;;;;44.80;25.77;;;;;;;9.64;95.86;101186.03;5048134;28;20206;-78
2024/03/22 02:08:57;;;;;;;40.37;24.10;;;;;;;9.61;95.68;101186.19;5049315;28;20213;-78
2024/03/22 02:11:23;;;;;;;44.73;25.07;;;;;;;9.64;96.23;101196.69;5045865;28;20317;-78
2024/03/22 02:13:49;;;;;;;41.77;24.13;;;;;;;9.60;96.22;101187.13;5049241;28;20228;-78
2024/03/22 02:16:16;;;;;;;44.37;24.40;;;;;;;9.60;96.47;101181.81;5044893;28;20752;-78
2024/03/22 02:18:44;;;;;;;49.60;25.37;;;;;;;9.61;96.21;101170.22;5042779;28;20204;-78
2024/03/22 02:21:10;;;;;;;46.07;24.03;;;;;;;9.61;96.27;101167.56;5048909;28;20286;-78
2024/03/22 02:23:39;;;;;;;45.00;23.30;;;;;;;9.62;96.35;101163.13;5048804;28;21473;-78
2024/03/22 02:26:05;;;;;;;44.80;23.67;;;;;;;9.62;96.42;101158.66;5049223;28;20229;-78
2024/03/22 02:28:33;;;;;;;43.70;23.30;;;;;;;9.62;96.18;101152.47;5044818;28;20211;-78
2024/03/22 02:30:59;;;;;;;43.10;25.00;;;;;;;9.68;96.14;101155.66;5046803;28;20222;-78
2024/03/22 02:33:26;;;;;;;46.00;24.93;;;;;;;9.68;96.35;101150.34;5046457;28;20495;-78
2024/03/22 02:35:52;;;;;;;47.63;26.13;;;;;;;9.68;96.08;101154.81;5048762;28;20342;-78
2024/03/22 02:38:19;;;;;;;45.47;23.50;;;;;;;9.67;96.14;101155.78;5047186;28;20451;-78
2024/03/22 02:40:47;;;;;;;44.30;23.27;;;;;;;9.73;95.71;101150.97;5047164;28;20316;-77
2024/03/22 02:43:14;;;;;;;48.67;24.87;;;;;;;9.82;94.85;101132.81;5041640;28;20197;-78
2024/03/22 02:45:40;;;;;;;44.93;23.77;;;;;;;9.78;95.01;101131.25;5046037;28;20289;-78
2024/03/22 02:48:07;;;;;;;43.47;23.67;;;;;;;9.74;95.47;101118.13;5045538;28;20967;-78
2024/03/22 02:50:33;;;;;;;48.63;24.30;;;;;;;9.78;95.51;101109.97;5048442;28;20202;-77
2024/03/22 02:52:59;;;;;;;45.50;24.57;;;;;;;9.75;95.42;101109.19;5044032;28;20632;-77
2024/03/22 02:55:25;;;;;;;42.53;22.70;;;;;;;9.75;95.56;101109.19;5048777;28;20305;-78
2024/03/22 02:57:53;;;;;;;44.33;23.10;;;;;;;9.79;95.11;101098.41;5046483;28;20296;-77
2024/03/22 03:00:19;;;;;;;48.33;24.30;;;;;;;9.75;95.52;101095.91;5051925;28;20721;-78
2024/03/22 03:02:46;;;;;;;44.53;23.63;;;;;;;9.74;95.75;101085.34;5050493;28;20320;-77
2024/03/22 03:05:12;;;;;;;45.73;22.93;;;;;;;9.73;95.34;101094.25;5050571;28;20305;-78
2024/03/22 03:07:38;;;;;;;42.50;22.73;;;;;;;9.75;95.49;101097.69;5051127;28;20266;-77
2024/03/22 03:10:04;;;;;;;42.10;23.50;;;;;;;9.75;95.30;101105.69;5053180;28;20281;-78
2024/03/22 03:12:31;;;;;;;42.50;21.43;;;;;;;9.77;95.49;101108.25;5047553;28;20283;-77
2024/03/22 03:14:58;;;;;;;38.60;21.33;;;;;;;9.81;94.76;101109.81;5049384;28;20239;-77
2024/03/22 03:17:25;;;;;;;38.13;22.17;;;;;;;9.79;94.78;101109.03;5044166;28;20293;-78
2024/03/22 03:19:50;;;;;;;42.87;22.63;;;;;;;9.80;94.74;101108.97;5047672;28;20796;-77
2024/03/22 03:22:17;;;;;;;39.10;21.03;;;;;;;9.80;94.82;101113.44;5048427;28;20312;-77
2024/03/22 03:24:43;;;;;;;43.47;22.30;;;;;;;9.81;94.01;101113.34;5050166;28;20198;-78
2024/03/22 03:27:10;;;;;;;44.93;22.63;;;;;;;9.81;94.58;101108.03;5044182;28;20658;-77
2024/03/22 03:29:36;;;;;;;41.47;21.37;;;;;;;9.80;94.24;101098.31;5043503;28;20288;-78
2024/03/22 03:32:04;;;;;;;37.63;21.50;;;;;;;9.84;93.98;101088.38;5047736;28;20663;-77
2024/03/22 03:34:30;;;;;;;36.10;20.73;;;;;;;9.89;93.65;101078.34;5044303;28;20209;-78
2024/03/22 03:37:00;;;;;;;39.30;21.27;;;;;;;9.85;93.80;101068.81;5049626;28;20292;-78
2024/03/22 03:39:27;;;;;;;39.90;21.07;;;;;;;9.89;93.76;101067.69;5048317;28;20677;-78
2024/03/22 03:41:52;;;;;;;36.77;19.83;;;;;;;9.89;93.53;101063.22;5048597;28;20498;-78
2024/03/22 03:44:19;;;;;;;36.73;20.83;;;;;;;9.86;93.37;101058.06;5045016;28;20308;-78
2024/03/22 03:46:44;;;;;;;38.30;20.63;;;;;;;9.82;93.81;101053.03;5052499;28;20807;-77
2024/03/22 03:49:12;;;;;;;37.23;20.20;;;;;;;9.84;93.92;101048.47;5045350;28;20202;-77
2024/03/22 03:51:38;;;;;;;32.63;18.20;;;;;;;9.85;93.41;101026.25;5053456;28;20393;-77
2024/03/22 03:54:05;;;;;;;37.00;19.33;;;;;;;9.86;93.51;101031.47;5052681;28;20212;-77
2024/03/22 03:56:30;;;;;;;35.40;20.83;;;;;;;9.82;93.54;101027.28;5043358;28;20222;-78
2024/03/22 03:58:57;;;;;;;37.57;19.43;;;;;;;9.83;93.88;101033.47;5053302;28;20300;-78
2024/03/22 04:01:23;;;;;;;35.93;20.17;;;;;;;9.79;93.66;101029.25;5053953;28;20249;-77
2024/03/22 04:03:49;;;;;;;38.53;20.13;;;;;;;9.79;93.70;101024.78;5051343;28;20585;-77
2024/03/22 04:06:16;;;;;;;36.20;20.17;;;;;;;9.78;93.87;101025.72;5042557;28;20229;-77
2024/03/22 04:08:44;;;;;;;37.00;19.83;;;;;;;9.75;93.99;101026.75;5050579;28;20585;-78
2024/03/22 04:11:10;;;;;;;35.07;18.17;;;;;;;9.69;94.22;101010.25;5053031;28;20235;-78
2024/03/22 04:13:36;;;;;;;35.70;19.37;;;;;;;9.72;93.75;101005.63;5052445;28;20273;-77
2024/03/22 04:16:02;;;;;;;37.20;20.07;;;;;;;9.71;94.13;101000.38;5052177;28;20237;-78
2024/03/22 04:18:29;;;;;;;36.73;18.77;;;;;;;9.69;94.02;100999.59;5053160;28;20218;-77
2024/03/22 04:20:55;;;;;;;32.73;18.00;;;;;;;9.71;93.90;101003.03;5046739;28;20301;-78
2024/03/22 04:23:24;;;;;;;34.23;18.47;;;;;;;9.69;94.26;100996.94;5053726;28;20308;-77
2024/03/22 04:25:54;;;;;;;34.17;16.37;;;;;;;9.71;94.06;100993.25;5047709;28;20242;-78
2024/03/22 04:28:21;;;;;;;34.13;18.47;;;;;;;9.72;93.82;101002.97;5053831;28;20204;-77
2024/03/22 04:30:56;;;;;;;38.27;18.43;;;;;;;9.70;94.24;100996.88;5055958;28;20201;-77
2024/03/22 04:33:23;;;;;;;34.60;18.17;;;;;;;9.67;94.92;100986.38;5057561;28;20563;-78
2024/03/22 04:35:48;;;;;;;35.43;18.67;;;;;;;9.66;95.05;100989.16;5054297;28;20675;-78
2024/03/22 04:38:15;;;;;;;32.67;17.37;;;;;;;9.70;94.95;100985.38;5057704;28;20261;-78
2024/03/22 04:40:43;;;;;;;33.00;18.17;;;;;;;9.75;94.52;100972.69;5054824;28;20313;-78
2024/03/22 04:43:08;;;;;;;33.43;18.70;;;;;;;9.75;94.80;100968.22;5049719;28;20233;-78
2024/03/22 04:45:35;;;;;;;35.63;18.20;;;;;;;9.74;94.36;100965.66;5056051;28;20292;-78
2024/03/22 04:48:02;;;;;;;33.80;18.73;;;;;;;9.80;94.60;100961.81;5055416;28;20301;-76
2024/03/22 04:50:28;;;;;;;33.43;16.90;;;;;;;9.79;94.29;100968.91;5055190;28;20233;-78
2024/03/22 04:52:55;;;;;;;32.27;17.90;;;;;;;9.75;94.85;100973.53;5054680;28;20585;-78
2024/03/22 04:55:21;;;;;;;33.07;18.67;;;;;;;9.79;94.54;100965.41;5055963;28;20201;-77
2024/03/22 04:57:49;;;;;;;31.87;17.70;;;;;;;9.78;94.56;100955.69;5053853;28;20217;-77
2024/03/22 05:00:17;;;;;;;36.90;18.30;;;;;;;9.75;95.12;100957.59;5053542;28;20268;-77
2024/03/22 05:02:42;;;;;;;35.37;18.93;;;;;;;9.74;95.16;100950.53;5053204;28;20264;-78
2024/03/22 05:05:09;;;;;;;27.80;16.83;;;;;;;9.72;95.36;100959.56;5055615;28;20205;-77
2024/03/22 05:07:35;;;;;;;32.77;16.93;;;;;;;9.72;95.30;100948.91;5052055;28;20306;-77
2024/03/22 05:10:01;;;;;;;28.83;15.73;;;;;;;9.77;95.75;100953.97;5051422;28;20300;-77
2024/03/22 05:12:27;;;;;;;31.67;17.57;;;;;;;9.80;95.93;100943.19;5053208;28;20316;-77
2024/03/22 05:14:55;;;;;;;38.77;17.67;;;;;;;9.79;95.97;100949.44;5055829;28;20245;-77
2024/03/22 05:17:20;;;;;;;34.70;18.10;;;;;;;9.83;95.86;100938.56;5049598;28;20292;-78
2024/03/22 05:19:47;;;;;;;33.13;17.93;;;;;;;9.84;96.36;100942.06;5051651;28;20392;-77
2024/03/22 05:22:13;;;;;;;32.43;17.43;;;;;;;9.86;96.47;100940.16;5052843;28;20731;-78
2024/03/22 05:24:39;;;;;;;34.27;18.57;;;;;;;9.87;96.41;100934.75;5050624;28;20210;-78
2024/03/22 05:27:05;;;;;;;34.10;17.80;;;;;;;9.88;96.66;100938.28;5053790;28;21686;-77
2024/03/22 05:29:32;;;;;;;36.03;17.60;;;;;;;9.92;96.90;100937.16;5052593;28;20225;-78
2024/03/22 05:32:00;;;;;;;37.37;18.50;;;;;;;9.92;96.82;100931.84;5051792;28;20686;-77
2024/03/22 05:34:26;;;;;;;34.47;18.30;;;;;;;9.97;96.80;100935.13;5052210;28;20209;-78
2024/03/22 05:36:52;;;;;;;34.07;18.50;;;;;;;9.96;97.00;100922.75;5048534;28;20305;-77
2024/03/22 05:39:19;;;;;;;30.33;16.67;;;;;;;9.94;97.02;100929.97;5055793;28;20265;-78
2024/03/22 05:41:45;;;;;;;33.43;18.03;;;;;;;9.95;97.40;100931.69;5051309;28;20308;-78
2024/03/22 05:44:12;;;;;;;34.50;17.37;;;;;;;9.95;97.63;100921.03;5053298;28;20296;-78
2024/03/22 05:46:38;;;;;;;32.73;17.70;;;;;;;9.97;97.56;100930.66;5054384;28;20677;-78
2024/03/22 05:49:06;;;;;;;34.93;18.07;;;;;;;9.98;97.34;100915.56;5050144;28;20230;-78
2024/03/22 05:51:31;;;;;;;33.83;18.37;;;;;;;10.02;97.42;100917.09;5052628;28;20256;-77
2024/03/22 05:53:58;;;;;;;33.30;18.10;;;;;;;10.02;97.50;100917.09;5052081;28;20244;-77
2024/03/22 05:56:24;;;;;;;29.27;16.87;;;;;;;10.03;97.73;100918.81;5051827;28;20549;-77
2024/03/22 05:58:50;;;;;;;31.73;16.10;;;;;;;10.04;97.78;100909.84;5054102;28;20281;-77
2024/03/22 06:01:16;;;;;;;34.33;18.00;;;;;;;10.06;97.64;100908.81;5051688;28;20735;-77
2024/03/22 06:03:43;;;;;;;32.70;17.40;;;;;;;10.10;97.40;100904.19;5059919;28;20297;-77
2024/03/22 06:06:10;;;;;;;30.30;17.40;;;;;;;10.13;97.38;100906.69;5052948;28;20245;-77
2024/03/22 06:08:39;;;;;;;32.73;17.30;;;;;;;10.10;97.37;100905.06;5054783;28;20444;-77
2024/03/22 06:11:06;;;;;;;33.73;18.47;;;;;;;10.10;97.83;100899.72;5055683;28;20713;-77
2024/03/22 06:13:34;;;;;;;32.47;16.47;;;;;;;10.14;97.83;100897.75;5053739;28;20271;-78
2024/03/22 06:16:00;;;;;;;31.47;16.33;;;;;;;10.16;97.38;100895.88;5053086;28;20206;-78
2024/03/22 06:18:27;;;;;;;30.27;17.83;;;;;;;10.14;97.54;100887.13;5057083;28;20222;-77
2024/03/22 06:20:54;;;;;;;28.80;17.00;;;;;;;10.19;96.90;100882.44;5049916;28;20792;-77
2024/03/22 06:23:23;;;;;;;30.23;16.40;;;;;;;10.21;97.25;100898.31;5055337;28;20202;-77
2024/03/22 06:25:52;;;;;;;31.27;16.87;;;;;;;10.22;97.04;100889.34;5050828;28;20741;-77
2024/03/22 06:28:18;;;;;;;32.10;18.87;;;;;;;10.19;97.15;100885.09;5053855;28;20198;-77
2024/03/22 06:30:44;;;;;;;29.67;16.00;;;;;;;10.17;97.64;100888.75;5052145;28;20628;-77
2024/03/22 06:33:11;;;;;;;30.00;16.97;;;;;;;10.17;97.00;100883.41;5051309;28;20298;-77
2024/03/22 06:35:36;;;;;;;25.57;16.23;;;;;;;10.20;97.02;100880.63;5053503;28;20233;-77
2024/03/22 06:38:04;;;;;;;29.77;16.50;;;;;;;10.23;96.78;100878.63;5049897;28;20209;-77
2024/03/22 06:40:31;;;;;;;26.23;14.70;;;;;;;10.26;96.75;100874.91;5051991;28;20698;-77
2024/03/22 06:42:58;;;;;;;28.53;15.80;;;;;;;10.33;96.25;100884.28;5050156;28;20264;-77
2024/03/22 06:45:24;;;;;;;25.93;15.20;;;;;;;10.31;96.56;100865.72;5051718;28;20202;-77
2024/03/22 06:47:50;;;;;;;30.00;15.20;;;;;;;10.36;96.56;100845.03;5054469;28;20264;-76
2024/03/22 06:50:17;;;;;;;27.03;14.63;;;;;;;10.43;95.99;100854.34;5047401;28;20218;-78
2024/03/22 06:52:44;;;;;;;27.40;16.27;;;;;;;10.47;95.54;100848.84;5051924;28;20225;-77
2024/03/22 06:55:10;;;;;;;28.40;15.97;;;;;;;10.44;95.37;100845.41;5049331;28;20238;-77
2024/03/22 06:57:38;;;;;;;29.93;15.23;;;;;;;10.46;95.57;100847.97;5059972;28;20250;-77
2024/03/22 07:00:04;;;;;;;31.37;15.83;;;;;;;10.48;95.02;100842.56;5055603;28;20300;-77
2024/03/22 07:02:31;;;;;;;27.47;15.70;;;;;;;10.50;94.86;100843.34;5052028;28;20228;-77
2024/03/22 07:04:56;;;;;;;27.30;14.93;;;;;;;10.50;94.71;100844.19;5050878;28;20401;-77
2024/03/22 07:07:23;;;;;;;26.00;14.13;;;;;;;10.55;94.55;100846.59;5053196;28;20338;-78
2024/03/22 07:09:49;;;;;;;28.07;15.67;;;;;;;10.59;94.05;100853.41;5051133;28;20306;-77
2024/03/22 07:12:15;;;;;;;28.63;15.30;;;;;;;10.58;94.16;100851.72;5051464;28;20837;-76
2024/03/22 07:14:42;;;;;;;26.90;15.07;;;;;;;10.60;94.33;100850.66;5048075;28;20247;-77
2024/03/22 07:17:09;;;;;;;27.93;15.93;;;;;;;10.60;93.91;100858.66;5053616;28;20211;-77
2024/03/22 07:19:35;;;;;;;30.33;16.40;;;;;;;10.59;94.10;100856.09;5051741;28;20208;-78
2024/03/22 07:22:02;;;;;;;31.60;15.70;;;;;;;10.63;94.38;100855.81;5054325;28;20236;-76
2024/03/22 07:24:28;;;;;;;22.03;14.73;;;;;;;10.67;94.12;100859.16;5056516;28;20208;-77
2024/03/22 07:26:54;;;;;;;28.27;14.87;;;;;;;10.68;93.97;100852.88;5050696;28;20722;-77
2024/03/22 07:29:20;;;;;;;27.33;14.37;;;;;;;10.70;93.97;100846.53;5053240;28;20297;-78
2024/03/22 07:31:48;;;;;;;29.23;15.63;;;;;;;10.75;94.24;100846.22;5052438;28;20229;-77
2024/03/22 07:34:15;;;;;;;24.70;13.97;;;;;;;10.82;94.07;100834.25;5051663;28;20290;-77
2024/03/22 07:36:41;;;;;;;27.90;14.53;;;;;;;10.89;93.77;100824.06;5056994;28;20208;-77
2024/03/22 07:39:07;;;;;;;25.07;14.50;;;;;;;10.95;92.74;100819.19;5054763;28;20229;-78
2024/03/22 07:41:34;;;;;;;26.67;14.63;;;;;;;10.98;92.54;100818.16;5048944;28;20269;-77
2024/03/22 07:44:00;;;;;;;25.07;13.23;;;;;;;11.03;92.31;100810.75;5056690;28;20275;-76
2024/03/22 07:46:27;;;;;;;25.50;14.67;;;;;;;11.10;90.73;100820.94;5056162;28;20233;-78
2024/03/22 07:48:54;;;;;;;24.43;13.50;;;;;;;11.14;91.45;100808.25;5057227;28;20211;-77
2024/03/22 07:51:21;;;;;;;29.40;14.87;;;;;;;11.18;91.22;100809.78;5054888;28;20713;-77
2024/03/22 07:53:46;;;;;;;28.53;14.73;;;;;;;11.20;91.04;100812.34;5053804;28;20226;-78
2024/03/22 07:56:15;;;;;;;26.77;14.70;;;;;;;11.21;91.36;100814.91;5051947;28;20244;-78
2024/03/22 07:58:41;;;;;;;24.43;13.87;;;;;;;11.24;91.72;100814.72;5056009;28;20251;-77
2024/03/22 08:01:07;;;;;;;25.17;14.90;;;;;;;11.30;92.12;100814.31;5053764;28;20251;-77
2024/03/22 08:03:33;;;;;;;25.03;15.13;;;;;;;11.35;91.92;100806.88;5057802;28;20289;-78
2024/03/22 08:06:03;;;;;;;21.17;13.27;;;;;;;11.44;91.22;100795.66;5055062;28;20757;-78
2024/03/22 08:08:29;;;;;;;21.43;13.37;;;;;;;11.46;90.78;100800.88;5059711;28;20207;-77
2024/03/22 08:10:56;;;;;;;26.50;14.60;;;;;;;11.50;90.70;100799.72;5055576;28;20232;-77
2024/03/22 08:13:22;;;;;;;22.20;13.07;;;;;;;11.57;90.51;100800.19;5054732;28;20272;-77
2024/03/22 08:15:48;;;;;;;20.23;11.43;;;;;;;11.62;90.09;100793.59;5052509;28;20296;-77
2024/03/22 08:18:14;;;;;;;21.40;13.73;;;;;;;11.62;89.89;100798.94;5060008;28;20288;-76
2024/03/22 08:20:40;;;;;;;19.03;12.60;;;;;;;11.64;89.95;100796.16;5054952;28;20323;-77
2024/03/22 08:23:14;;;;;;;19.70;12.70;;;;;;;11.67;89.82;100791.47;5056038;28;20979;-76
2024/03/22 08:25:40;;;;;;;19.73;12.33;;;;;;;11.71;89.45;100792.13;5057370;28;20239;-78
2024/03/22 08:28:06;;;;;;;21.23;13.23;;;;;;;11.71;89.42;100792.97;5058123;28;20643;-77
2024/03/22 08:30:32;;;;;;;19.70;12.53;;;;;;;11.73;89.53;100790.22;5061718;28;20300;-77
2024/03/22 08:32:58;;;;;;;18.57;11.77;;;;;;;11.75;89.24;100788.31;5057682;28;20297;-77
2024/03/22 08:35:25;;;;;;;20.27;12.23;;;;;;;11.80;89.42;100786.22;5057684;28;20247;-77
2024/03/22 08:37:50;;;;;;;20.43;12.50;;;;;;;11.83;89.18;100784.19;5057431;28;20232;-77
2024/03/22 08:40:18;;;;;;;23.60;13.83;;;;;;;11.83;88.88;100797.53;5054546;28;20260;-77
2024/03/22 08:42:44;;;;;;;20.00;12.47;;;;;;;11.86;88.79;100784.94;5056809;22;20328;-74
2024/03/22 08:45:10;;;;;;;22.63;13.33;;;;;;;11.90;88.00;100787.31;5027906;28;21487;-74
2024/03/22 08:47:36;;;;;;;24.20;11.57;;;;;;;11.94;87.74;100785.31;5030563;28;20655;-75
2024/03/22 08:50:02;;;;;;;18.83;12.10;;;;;;;11.98;87.21;100768.13;5028094;28;20224;-74
2024/03/22 08:52:30;;;;;;;17.33;11.50;;;;;;;11.97;86.47;100766.41;5027502;28;20242;-74
2024/03/22 08:54:56;;;;;;;20.47;12.63;;;;;;;11.99;86.81;100767.19;5026534;28;20674;-72
2024/03/22 08:57:24;;;;;;;17.83;11.30;;;;;;;12.04;86.46;100768.56;5029614;28;20813;-74
2024/03/22 08:59:50;;;;;;;18.43;11.13;;;;;;;12.05;86.06;100761.41;5028820;28;20206;-74
2024/03/22 09:02:16;;;;;;;20.03;12.47;;;;;;;12.04;86.26;100770.38;5027800;28;20222;-74
2024/03/22 09:04:43;;;;;;;19.67;12.67;;;;;;;12.11;86.21;100772.53;5029005;28;20576;-74
2024/03/22 09:07:08;;;;;;;21.77;11.50;;;;;;;12.12;86.27;100765.38;5024380;28;20583;-74
2024/03/22 09:09:35;;;;;;;19.50;12.17;;;;;;;12.12;85.91;100752.88;5029938;28;20215;-74
2024/03/22 09:12:01;;;;;;;18.87;12.20;;;;;;;12.13;85.73;100751.94;5029120;28;20248;-74
2024/03/22 09:14:29;;;;;;;22.37;12.37;;;;;;;12.17;85.68;100747.25;5030008;28;20296;-74
2024/03/22 09:16:55;;;;;;;18.93;12.13;;;;;;;12.20;85.69;100739.00;5027914;28;20738;-74
2024/03/22 09:19:22;;;;;;;17.17;10.63;;;;;;;12.25;85.07;100731.53;5028826;28;20290;-74
2024/03/22 09:21:47;;;;;;;18.40;12.53;;;;;;;12.26;84.68;100735.06;5025993;28;20305;-74
2024/03/22 09:24:14;;;;;;;17.70;12.17;;;;;;;12.24;84.68;100728.97;5027977;28;20297;-75
2024/03/22 09:26:39;;;;;;;19.87;11.53;;;;;;;12.32;84.67;100730.16;5029299;28;20296;-74
2024/03/22 09:29:06;;;;;;;18.80;11.20;;;;;;;12.34;84.73;100733.59;5028775;28;20227;-74
2024/03/22 09:31:33;;;;;;;18.77;12.07;;;;;;;12.33;83.49;100717.66;5028726;28;20226;-74
2024/03/22 09:34:01;;;;;;;17.57;11.33;;;;;;;12.36;83.81;100709.44;5027020;28;20294;-74
2024/03/22 09:36:27;;;;;;;19.10;12.00;;;;;;;12.35;83.16;100713.94;5028127;28;20205;-74
2024/03/22 09:38:53;;;;;;;17.00;11.47;;;;;;;12.35;82.42;100710.41;5028780;28;20300;-74
2024/03/22 09:41:24;;;;;;;18.07;10.50;;;;;;;12.37;82.81;100695.09;5025524;28;20818;-74
2024/03/22 09:43:52;;;;;;;16.80;11.70;;;;;;;12.38;82.35;100692.31;5027538;28;20605;-74
2024/03/22 09:46:20;;;;;;;17.70;11.27;;;;;;;12.40;82.70;100693.06;5025275;28;20287;-74
2024/03/22 09:48:49;;;;;;;18.07;10.77;;;;;;;12.43;82.56;100684.84;5026008;28;20293;-74
2024/03/22 09:51:16;;;;;;;17.27;10.63;;;;;;;12.45;82.67;100688.28;5026072;28;20195;-74
2024/03/22 09:53:45;;;;;;;19.73;11.17;;;;;;;12.48;81.57;100697.88;5030201;28;20296;-72
2024/03/22 09:56:14;;;;;;;12.63;9.77;;;;;;;12.49;81.20;100679.09;5023937;28;20290;-74
2024/03/22 09:58:41;;;;;;;16.63;10.30;;;;;;;12.51;81.55;100685.19;5024572;28;20212;-74
2024/03/22 10:01:07;;;;;;;13.70;10.40;;;;;;;12.52;80.94;100673.53;5024572;28;20324;-75
2024/03/22 10:03:34;;;;;;;19.67;10.07;;;;;;;12.51;81.03;100663.81;5026702;28;20240;-74
2024/03/22 10:06:01;;;;;;;14.07;9.63;;;;;;;12.55;80.19;100667.09;5024003;28;20209;-74
2024/03/22 10:08:28;;;;;;;16.73;10.47;;;;;;;12.57;79.56;100677.66;5025978;28;20209;-74
2024/03/22 10:10:53;;;;;;;14.00;9.60;;;;;;;12.56;79.39;100666.13;5024976;28;20676;-75
2024/03/22 10:13:20;;;;;;;15.03;9.33;;;;;;;12.59;79.87;100670.41;5027790;28;20390;-74
2024/03/22 10:15:46;;;;;;;14.57;9.80;;;;;;;12.63;79.41;100666.56;5024728;28;20287;-74
2024/03/22 10:18:14;;;;;;;12.70;9.30;;;;;;;12.62;78.55;100665.69;5026200;28;20304;-74
2024/03/22 10:20:40;;;;;;;14.87;9.83;;;;;;;12.69;78.42;100666.13;5024201;28;20225;-74
2024/03/22 10:23:09;;;;;;;15.00;9.30;;;;;;;12.72;78.68;100663.25;5026404;28;20228;-74
2024/03/22 10:25:35;;;;;;;13.33;9.53;;;;;;;12.74;77.12;100675.50;5025613;28;20217;-74
2024/03/22 10:28:02;;;;;;;13.67;9.17;;;;;;;12.76;75.62;100662.03;5026047;28;20210;-74
2024/03/22 10:30:29;;;;;;;13.50;8.33;;;;;;;12.77;75.47;100661.06;5026132;28;20309;-74
2024/03/22 10:32:55;;;;;;;11.07;7.03;;;;;;;12.78;73.69;100657.44;5027591;28;20715;-74
2024/03/22 10:35:22;;;;;;;12.27;7.80;;;;;;;12.78;72.59;100660.94;5025332;28;20212;-74
2024/03/22 10:37:51;;;;;;;11.60;7.37;;;;;;;12.82;72.37;100645.56;5029168;28;20288;-74
2024/03/22 10:40:20;;;;;;;9.80;6.70;;;;;;;12.84;71.89;100657.84;5024380;28;20205;-74
2024/03/22 10:42:46;;;;;;;8.23;6.50;;;;;;;12.87;71.32;100659.44;5027165;28;20312;-74
2024/03/22 10:45:12;;;;;;;9.57;6.20;;;;;;;12.90;70.10;100647.69;5025511;28;20704;-74
2024/03/22 10:47:39;;;;;;;7.53;6.13;;;;;;;12.90;69.10;100659.19;5027764;28;20210;-74
2024/03/22 10:50:07;;;;;;;7.67;5.10;;;;;;;12.92;68.05;100657.28;5026245;28;20311;-74
2024/03/22 10:52:38;;;;;;;9.53;6.43;;;;;;;12.94;67.86;100659.84;5028650;28;20708;-74
2024/03/22 10:55:07;;;;;;;8.67;5.87;;;;;;;12.99;69.08;100665.72;5028678;28;20294;-74
2024/03/22 10:57:37;;;;;;;10.60;6.27;;;;;;;13.01;72.14;100666.47;5031864;28;20294;-73
2024/03/22 11:00:09;;;;;;;9.93;6.67;;;;;;;13.05;75.85;100674.16;5029620;28;20206;-73
2024/03/22 11:02:36;;;;;;;9.03;6.40;;;;;;;13.01;77.04;100672.66;5024747;28;20233;-74
2024/03/22 11:05:02;;;;;;;9.40;7.03;;;;;;;12.98;78.86;100667.53;5026292;28;20263;-74
2024/03/22 11:07:30;;;;;;;9.17;7.07;;;;;;;12.93;79.57;100658.13;5028409;28;20221;-74
2024/03/22 11:09:57;;;;;;;11.17;6.80;;;;;;;12.90;81.03;100656.53;5029208;28;20241;-74
2024/03/22 11:12:25;;;;;;;10.93;6.97;;;;;;;12.86;81.22;100645.22;5028431;28;20629;-74